sensor_id;sensor_type;location;lat;lon;timestamp;pressure;altitude;pressure_sealevel;temperature;humidity
63556;BME280;49700;48.072;7.800;2023-10-09T00:00:50;100171.63;;;14.10;nan
63556;BME280;49700;48.072;7.800;2023-10-09T00:03:18;100166.44;;;14.09;nan
63556;BME280;49700;48.072;7.800;2023-10-09T00:05:44;100167.41;;;14.08;nan
63556;BME280;49700;48.072;7.800;2023-10-09T00:08:09;100164.00;;;14.06;nan
63556;BME280;49700;48.072;7.800;2023-10-09T00:10:36;100167.81;;;14.02;nan
63556;BME280;49700;48.072;7.800;2023-10-09T00:13:11;100164.44;;;14.00;nan
63556;BME280;49700;48.072;7.800;2023-10-09T00:15:36;100172.59;;;13.97;nan
63556;BME280;49700;48.072;7.800;2023-10-09T00:18:02;100170.03;;;13.95;nan
63556;BME280;49700;48.072;7.800;2023-10-09T00:20:40;100164.88;;;13.93;nan
63556;BME280;49700;48.072;7.800;2023-10-09T00:23:09;100158.94;;;13.90;nan
63556;BME280;49700;48.072;7.800;2023-10-09T00:25:51;100165.47;;;13.84;nan
63556;BME280;49700;48.072;7.800;2023-10-09T00:28:39;100163.06;;;13.81;nan
63556;BME280;49700;48.072;7.800;2023-10-09T00:31:13;100161.38;;;13.80;nan
63556;BME280;49700;48.072;7.800;2023-10-09T00:33:51;100161.38;;;13.80;nan
63556;BME280;49700;48.072;7.800;2023-10-09T00:36:17;100152.72;;;13.78;nan
63556;BME280;49700;48.072;7.800;2023-10-09T00:38:52;100158.94;;;13.77;nan
63556;BME280;49700;48.072;7.800;2023-10-09T00:41:18;100162.53;;;13.76;nan
63556;BME280;49700;48.072;7.800;2023-10-09T00:43:47;100158.28;;;13.73;nan
63556;BME280;49700;48.072;7.800;2023-10-09T00:46:16;100160.19;;;13.71;nan
63556;BME280;49700;48.072;7.800;2023-10-09T00:48:51;100155.97;;;13.69;nan
63556;BME280;49700;48.072;7.800;2023-10-09T00:51:17;100162.31;;;13.66;nan
63556;BME280;49700;48.072;7.800;2023-10-09T00:53:58;100159.03;;;13.63;nan
63556;BME280;49700;48.072;7.800;2023-10-09T00:56:31;100156.81;;;13.57;nan
63556;BME280;49700;48.072;7.800;2023-10-09T00:59:04;100150.97;;;13.52;nan
63556;BME280;49700;48.072;7.800;2023-10-09T01:01:42;100147.59;;;13.49;nan
63556;BME280;49700;48.072;7.800;2023-10-09T01:04:24;100145.16;;;13.46;nan
63556;BME280;49700;48.072;7.800;2023-10-09T01:06:54;100139.25;;;13.43;nan
63556;BME280;49700;48.072;7.800;2023-10-09T01:09:39;100146.63;;;13.38;nan
63556;BME280;49700;48.072;7.800;2023-10-09T01:12:08;100150.53;;;13.32;nan
63556;BME280;49700;48.072;7.800;2023-10-09T01:14:44;100140.28;;;13.27;nan
63556;BME280;49700;48.072;7.800;2023-10-09T01:17:10;100134.53;;;13.21;nan
63556;BME280;49700;48.072;7.800;2023-10-09T01:19:37;100140.03;;;13.18;nan
63556;BME280;49700;48.072;7.800;2023-10-09T01:22:03;100138.31;;;13.17;nan
63556;BME280;49700;48.072;7.800;2023-10-09T01:24:41;100138.50;;;13.14;nan
63556;BME280;49700;48.072;7.800;2023-10-09T01:27:08;100132.50;;;13.12;nan
63556;BME280;49700;48.072;7.800;2023-10-09T01:29:40;100137.97;;;13.09;nan
63556;BME280;49700;48.072;7.800;2023-10-09T01:32:08;100129.31;;;13.06;nan
63556;BME280;49700;48.072;7.800;2023-10-09T01:34:42;100136.59;;;13.03;nan
63556;BME280;49700;48.072;7.800;2023-10-09T01:37:18;100136.78;;;13.00;nan
63556;BME280;49700;48.072;7.800;2023-10-09T01:39:46;100142.25;;;12.97;nan
63556;BME280;49700;48.072;7.800;2023-10-09T01:42:14;100139.72;;;12.95;nan
63556;BME280;49700;48.072;7.800;2023-10-09T01:44:50;100142.34;;;12.95;nan
63556;BME280;49700;48.072;7.800;2023-10-09T01:47:18;100136.16;;;12.96;nan
63556;BME280;49700;48.072;7.800;2023-10-09T01:49:44;100145.94;;;12.94;nan
63556;BME280;49700;48.072;7.800;2023-10-09T01:52:14;100139.16;;;12.90;nan
63556;BME280;49700;48.072;7.800;2023-10-09T01:54:44;100135.81;;;12.88;nan
63556;BME280;49700;48.072;7.800;2023-10-09T01:57:15;100131.66;;;12.84;nan
63556;BME280;49700;48.072;7.800;2023-10-09T01:59:43;100133.84;;;12.77;nan
63556;BME280;49700;48.072;7.800;2023-10-09T02:02:13;100133.19;;;12.74;nan
63556;BME280;49700;48.072;7.800;2023-10-09T02:05:06;100128.97;;;12.71;nan
63556;BME280;49700;48.072;7.800;2023-10-09T02:07:38;100128.88;;;12.73;nan
63556;BME280;49700;48.072;7.800;2023-10-09T02:10:11;100124.25;;;12.76;nan
63556;BME280;49700;48.072;7.800;2023-10-09T02:12:49;100128.47;;;12.79;nan
63556;BME280;49700;48.072;7.800;2023-10-09T02:15:23;100128.47;;;12.79;nan
63556;BME280;49700;48.072;7.800;2023-10-09T02:18:06;100127.53;;;12.80;nan
63556;BME280;49700;48.072;7.800;2023-10-09T02:23:26;100118.75;;;12.79;nan
63556;BME280;49700;48.072;7.800;2023-10-09T02:25:56;100118.75;;;12.79;nan
63556;BME280;49700;48.072;7.800;2023-10-09T02:28:22;100120.00;;;12.74;nan
63556;BME280;49700;48.072;7.800;2023-10-09T02:30:48;100118.53;;;12.70;nan
63556;BME280;49700;48.072;7.800;2023-10-09T02:33:17;100116.81;;;12.69;nan
63556;BME280;49700;48.072;7.800;2023-10-09T02:35:58;100117.03;;;12.66;nan
63556;BME280;49700;48.072;7.800;2023-10-09T02:38:30;100117.41;;;12.59;nan
63556;BME280;49700;48.072;7.800;2023-10-09T02:40:59;100112.44;;;12.55;nan
63556;BME280;49700;48.072;7.800;2023-10-09T02:43:32;100117.91;;;12.52;nan
63556;BME280;49700;48.072;7.800;2023-10-09T02:46:00;100116.09;;;12.52;nan
63556;BME280;49700;48.072;7.800;2023-10-09T02:48:38;100109.03;;;12.53;nan
63556;BME280;49700;48.072;7.800;2023-10-09T02:51:08;100109.16;;;12.51;nan
63556;BME280;49700;48.072;7.800;2023-10-09T02:53:41;100107.47;;;12.50;nan
63556;BME280;49700;48.072;7.800;2023-10-09T02:56:07;100109.34;;;12.48;nan
63556;BME280;49700;48.072;7.800;2023-10-09T02:58:41;100107.84;;;12.44;nan
63556;BME280;49700;48.072;7.800;2023-10-09T03:01:12;100103.72;;;12.40;nan
63556;BME280;49700;48.072;7.800;2023-10-09T03:03:49;100097.69;;;12.38;nan
63556;BME280;49700;48.072;7.800;2023-10-09T03:06:17;100098.66;;;12.37;nan
63556;BME280;49700;48.072;7.800;2023-10-09T03:08:50;100102.97;;;12.38;nan
63556;BME280;49700;48.072;7.800;2023-10-09T03:11:16;100101.28;;;12.37;nan
63556;BME280;49700;48.072;7.800;2023-10-09T03:13:44;100101.47;;;12.34;nan
63556;BME280;49700;48.072;7.800;2023-10-09T03:16:11;100096.31;;;12.32;nan
63556;BME280;49700;48.072;7.800;2023-10-09T03:18:46;100102.69;;;12.28;nan
63556;BME280;49700;48.072;7.800;2023-10-09T03:21:12;100095.31;;;12.21;nan
63556;BME280;49700;48.072;7.800;2023-10-09T03:23:40;100100.09;;;12.14;nan
63556;BME280;49700;48.072;7.800;2023-10-09T03:26:05;100101.31;;;12.08;nan
63556;BME280;49700;48.072;7.800;2023-10-09T03:28:33;100104.03;;;12.07;nan
63556;BME280;49700;48.072;7.800;2023-10-09T03:30:58;100103.09;;;12.08;nan
63556;BME280;49700;48.072;7.800;2023-10-09T03:33:28;100105.63;;;12.09;nan
63556;BME280;49700;48.072;7.800;2023-10-09T03:35:53;100109.97;;;12.10;nan
63556;BME280;49700;48.072;7.800;2023-10-09T03:38:20;100102.91;;;12.11;nan
63556;BME280;49700;48.072;7.800;2023-10-09T03:40:46;100105.56;;;12.11;nan
63556;BME280;49700;48.072;7.800;2023-10-09T03:43:13;100098.50;;;12.11;nan
63556;BME280;49700;48.072;7.800;2023-10-09T03:45:40;100105.56;;;12.11;nan
63556;BME280;49700;48.072;7.800;2023-10-09T03:48:18;100099.81;;;12.04;nan
63556;BME280;49700;48.072;7.800;2023-10-09T03:50:58;100103.78;;;11.97;nan
63556;BME280;49700;48.072;7.800;2023-10-09T03:53:49;100101.34;;;11.94;nan
63556;BME280;49700;48.072;7.800;2023-10-09T03:56:16;100104.69;;;11.96;nan
63556;BME280;49700;48.072;7.800;2023-10-09T03:58:47;100108.34;;;11.93;nan
63556;BME280;49700;48.072;7.800;2023-10-09T04:01:15;100111.09;;;11.92;nan
63556;BME280;49700;48.072;7.800;2023-10-09T04:04:04;100110.91;;;11.95;nan
63556;BME280;49700;48.072;7.800;2023-10-09T04:06:32;100112.31;;;12.01;nan
63556;BME280;49700;48.072;7.800;2023-10-09T04:09:02;100113.16;;;12.01;nan
63556;BME280;49700;48.072;7.800;2023-10-09T04:11:47;100106.84;;;12.04;nan
63556;BME280;49700;48.072;7.800;2023-10-09T04:14:15;100089.38;;;12.03;nan
63556;BME280;49700;48.072;7.800;2023-10-09T04:16:57;100096.44;;;12.02;nan
63556;BME280;49700;48.072;7.800;2023-10-09T04:19:30;100097.28;;;12.03;nan
63556;BME280;49700;48.072;7.800;2023-10-09T04:22:04;100092.84;;;12.03;nan
63556;BME280;49700;48.072;7.800;2023-10-09T04:24:33;100091.38;;;11.99;nan
63556;BME280;49700;48.072;7.800;2023-10-09T04:27:06;100105.06;;;11.90;nan
63556;BME280;49700;48.072;7.800;2023-10-09T04:29:33;100102.22;;;11.79;nan
63556;BME280;49700;48.072;7.800;2023-10-09T04:32:05;100105.88;;;11.76;nan
63556;BME280;49700;48.072;7.800;2023-10-09T04:34:42;100100.53;;;11.78;nan
63556;BME280;49700;48.072;7.800;2023-10-09T04:37:17;100105.63;;;11.81;nan
63556;BME280;49700;48.072;7.800;2023-10-09T04:39:49;100108.91;;;11.84;nan
63556;BME280;49700;48.072;7.800;2023-10-09T04:42:36;100094.75;;;11.87;nan
63556;BME280;49700;48.072;7.800;2023-10-09T04:45:05;100099.22;;;11.85;nan
63556;BME280;49700;48.072;7.800;2023-10-09T04:47:35;100091.44;;;11.83;nan
63556;BME280;49700;48.072;7.800;2023-10-09T04:50:05;100096.69;;;11.83;nan
63556;BME280;49700;48.072;7.800;2023-10-09T04:52:35;100088.63;;;11.86;nan
63556;BME280;49700;48.072;7.800;2023-10-09T04:55:01;100091.25;;;11.86;nan
63556;BME280;49700;48.072;7.800;2023-10-09T04:57:39;100095.75;;;11.84;nan
63556;BME280;49700;48.072;7.800;2023-10-09T05:00:09;100095.69;;;11.86;nan
63556;BME280;49700;48.072;7.800;2023-10-09T05:03:01;100089.47;;;11.87;nan
63556;BME280;49700;48.072;7.800;2023-10-09T05:05:36;100086.88;;;11.85;nan
63556;BME280;49700;48.072;7.800;2023-10-09T05:08:15;100090.59;;;11.83;nan
63556;BME280;49700;48.072;7.800;2023-10-09T05:10:53;100089.63;;;11.84;nan
63556;BME280;49700;48.072;7.800;2023-10-09T05:13:28;100087.97;;;11.83;nan
63556;BME280;49700;48.072;7.800;2023-10-09T05:16:10;100092.25;;;11.84;nan
63556;BME280;49700;48.072;7.800;2023-10-09T05:18:41;100086.88;;;11.85;nan
63556;BME280;49700;48.072;7.800;2023-10-09T05:21:07;100093.09;;;11.84;nan
63556;BME280;49700;48.072;7.800;2023-10-09T05:23:39;100093.94;;;11.85;nan
63556;BME280;49700;48.072;7.800;2023-10-09T05:26:16;100095.84;;;11.83;nan
63556;BME280;49700;48.072;7.800;2023-10-09T05:29:01;100104.00;;;11.78;nan
63556;BME280;49700;48.072;7.800;2023-10-09T05:31:44;100105.03;;;11.76;nan
63556;BME280;49700;48.072;7.800;2023-10-09T05:34:20;100105.25;;;11.72;nan
63556;BME280;49700;48.072;7.800;2023-10-09T05:36:47;100107.38;;;11.66;nan
63556;BME280;49700;48.072;7.800;2023-10-09T05:39:13;100100.50;;;11.63;nan
63556;BME280;49700;48.072;7.800;2023-10-09T05:41:45;100107.56;;;11.63;nan
63556;BME280;49700;48.072;7.800;2023-10-09T05:44:25;100117.91;;;11.66;nan
63556;BME280;49700;48.072;7.800;2023-10-09T05:47:09;100134.38;;;11.69;nan
63556;BME280;49700;48.072;7.800;2023-10-09T05:49:53;100124.56;;;11.71;nan
63556;BME280;49700;48.072;7.800;2023-10-09T05:52:33;100122.63;;;11.75;nan
63556;BME280;49700;48.072;7.800;2023-10-09T05:55:20;100120.72;;;11.77;nan
63556;BME280;49700;48.072;7.800;2023-10-09T05:58:04;100130.34;;;11.78;nan
63556;BME280;49700;48.072;7.800;2023-10-09T06:00:50;100130.16;;;11.81;nan
63556;BME280;49700;48.072;7.800;2023-10-09T06:03:30;100135.16;;;11.86;nan
63556;BME280;49700;48.072;7.800;2023-10-09T06:06:19;100130.28;;;11.94;nan
63556;BME280;49700;48.072;7.800;2023-10-09T06:09:05;100141.47;;;11.98;nan
63556;BME280;49700;48.072;7.800;2023-10-09T06:11:44;100138.44;;;12.04;nan
63556;BME280;49700;48.072;7.800;2023-10-09T06:14:20;100139.88;;;12.09;nan
63556;BME280;49700;48.072;7.800;2023-10-09T06:16:55;100145.63;;;12.16;nan
63556;BME280;49700;48.072;7.800;2023-10-09T06:19:36;100146.19;;;12.21;nan
63556;BME280;49700;48.072;7.800;2023-10-09T06:22:14;100156.41;;;12.26;nan
63556;BME280;49700;48.072;7.800;2023-10-09T06:24:58;100158.56;;;12.33;nan
63556;BME280;49700;48.072;7.800;2023-10-09T06:27:34;100166.84;;;12.42;nan
63556;BME280;49700;48.072;7.800;2023-10-09T06:29:59;100176.25;;;12.46;nan
63556;BME280;49700;48.072;7.800;2023-10-09T06:32:43;100178.78;;;12.47;nan
63556;BME280;49700;48.072;7.800;2023-10-09T06:35:14;100173.44;;;12.49;nan
63556;BME280;49700;48.072;7.800;2023-10-09T06:37:56;100177.66;;;12.51;nan
63556;BME280;49700;48.072;7.800;2023-10-09T06:40:35;100181.78;;;12.55;nan
63556;BME280;49700;48.072;7.800;2023-10-09T06:43:20;100187.63;;;12.60;nan
63556;BME280;49700;48.072;7.800;2023-10-09T06:45:50;100183.75;;;12.66;nan
63556;BME280;49700;48.072;7.800;2023-10-09T06:48:34;100183.47;;;12.71;nan
63556;BME280;49700;48.072;7.800;2023-10-09T06:51:07;100184.78;;;12.78;nan
63556;BME280;49700;48.072;7.800;2023-10-09T06:53:39;100180.06;;;12.83;nan
63556;BME280;49700;48.072;7.800;2023-10-09T06:56:21;100185.03;;;12.88;nan
63556;BME280;49700;48.072;7.800;2023-10-09T06:59:04;100180.63;;;12.88;nan
63556;BME280;49700;48.072;7.800;2023-10-09T07:01:42;100182.94;;;12.93;nan
63556;BME280;49700;48.072;7.800;2023-10-09T07:04:08;100188.78;;;12.98;nan
63556;BME280;49700;48.072;7.800;2023-10-09T07:06:50;100193.56;;;13.05;nan
63556;BME280;49700;48.072;7.800;2023-10-09T07:09:22;100184.31;;;13.13;nan
63556;BME280;49700;48.072;7.800;2023-10-09T07:11:49;100183.06;;;13.18;nan
63556;BME280;49700;48.072;7.800;2023-10-09T07:14:16;100187.75;;;13.27;nan
63556;BME280;49700;48.072;7.800;2023-10-09T07:19:23;100188.44;;;13.44;nan
63556;BME280;49700;48.072;7.800;2023-10-09T07:22:07;100190.56;;;13.52;nan
63556;BME280;49700;48.072;7.800;2023-10-09T07:25:02;100184.28;;;13.67;nan
63556;BME280;49700;48.072;7.800;2023-10-09T07:27:41;100185.84;;;13.82;nan
63556;BME280;49700;48.072;7.800;2023-10-09T07:30:11;100190.09;;;13.98;nan
63556;BME280;49700;48.072;7.800;2023-10-09T07:33:06;100200.88;;;14.20;nan
63556;BME280;49700;48.072;7.800;2023-10-09T07:38:17;100198.63;;;14.65;nan
63556;BME280;49700;48.072;7.800;2023-10-09T07:40:50;100187.28;;;14.89;nan
63556;BME280;49700;48.072;7.800;2023-10-09T07:43:45;100190.47;;;15.05;nan
63556;BME280;49700;48.072;7.800;2023-10-09T07:46:12;100184.28;;;15.17;nan
63556;BME280;49700;48.072;7.800;2023-10-09T07:49:01;100193.00;;;15.31;nan
63556;BME280;49700;48.072;7.800;2023-10-09T07:51:35;100192.34;;;15.40;nan
63556;BME280;49700;48.072;7.800;2023-10-09T07:54:01;100189.13;;;15.47;nan
63556;BME280;49700;48.072;7.800;2023-10-09T07:56:36;100191.91;;;15.57;nan
63556;BME280;49700;48.072;7.800;2023-10-09T07:59:11;100188.25;;;15.71;nan
63556;BME280;49700;48.072;7.800;2023-10-09T08:01:43;100191.47;;;15.99;nan
63556;BME280;49700;48.072;7.800;2023-10-09T08:04:22;100185.44;;;16.64;nan
63556;BME280;49700;48.072;7.800;2023-10-09T08:07:06;100188.38;;;17.16;nan
63556;BME280;49700;48.072;7.800;2023-10-09T08:09:33;100188.19;;;17.40;nan
63556;BME280;49700;48.072;7.800;2023-10-09T08:12:15;100177.63;;;17.70;nan
63556;BME280;49700;48.072;7.800;2023-10-09T08:14:59;100184.34;;;18.07;nan
63556;BME280;49700;48.072;7.800;2023-10-09T08:17:46;100186.66;;;18.62;nan
63556;BME280;49700;48.072;7.800;2023-10-09T08:23:17;100175.75;;;19.54;nan
63556;BME280;49700;48.072;7.800;2023-10-09T08:26:03;100173.72;;;19.95;nan
63556;BME280;49700;48.072;7.800;2023-10-09T08:28:41;100167.53;;;20.41;nan
63556;BME280;49700;48.072;7.800;2023-10-09T08:31:16;100159.38;;;21.16;nan
63556;BME280;49700;48.072;7.800;2023-10-09T08:33:47;100161.75;;;21.99;nan
63556;BME280;49700;48.072;7.800;2023-10-09T08:36:27;100156.13;;;22.87;nan
63556;BME280;49700;48.072;7.800;2023-10-09T08:38:56;100151.88;;;23.59;nan
63556;BME280;49700;48.072;7.800;2023-10-09T08:41:26;100152.41;;;24.35;nan
63556;BME280;49700;48.072;7.800;2023-10-09T08:43:56;100139.66;;;25.00;nan
63556;BME280;49700;48.072;7.800;2023-10-09T08:46:27;100141.59;;;25.60;nan
63556;BME280;49700;48.072;7.800;2023-10-09T08:48:56;100132.97;;;26.17;nan
63556;BME280;49700;48.072;7.800;2023-10-09T08:51:27;100135.75;;;26.75;nan
63556;BME280;49700;48.072;7.800;2023-10-09T08:53:55;100131.25;;;27.19;nan
63556;BME280;49700;48.072;7.800;2023-10-09T08:56:21;100136.31;;;27.50;nan
63556;BME280;49700;48.072;7.800;2023-10-09T08:58:57;100126.56;;;27.77;nan
63556;BME280;49700;48.072;7.800;2023-10-09T09:01:23;100127.78;;;27.74;nan
63556;BME280;49700;48.072;7.800;2023-10-09T09:03:51;100133.81;;;27.48;nan
63556;BME280;49700;48.072;7.800;2023-10-09T09:06:20;100136.97;;;27.09;nan
63556;BME280;49700;48.072;7.800;2023-10-09T09:08:49;100131.31;;;26.67;nan
63556;BME280;49700;48.072;7.800;2023-10-09T09:11:16;100136.22;;;26.27;nan
63556;BME280;49700;48.072;7.800;2023-10-09T09:13:45;100126.44;;;25.97;nan
63556;BME280;49700;48.072;7.800;2023-10-09T09:18:54;100138.19;;;25.43;nan
63556;BME280;49700;48.072;7.800;2023-10-09T09:21:28;100123.94;;;25.20;nan
63556;BME280;49700;48.072;7.800;2023-10-09T09:23:59;100135.13;;;25.00;nan
63556;BME280;49700;48.072;7.800;2023-10-09T09:26:34;100134.41;;;24.83;nan
63556;BME280;49700;48.072;7.800;2023-10-09T09:29:04;100133.47;;;24.68;nan
63556;BME280;49700;48.072;7.800;2023-10-09T09:31:31;100129.34;;;24.57;nan
63556;BME280;49700;48.072;7.800;2023-10-09T09:34:04;100125.16;;;24.55;nan
63556;BME280;49700;48.072;7.800;2023-10-09T09:36:49;100129.38;;;24.49;nan
63556;BME280;49700;48.072;7.800;2023-10-09T09:39:21;100130.25;;;24.49;nan
63556;BME280;49700;48.072;7.800;2023-10-09T09:41:54;100126.16;;;24.54;nan
63556;BME280;49700;48.072;7.800;2023-10-09T09:44:20;100129.47;;;24.64;nan
63556;BME280;49700;48.072;7.800;2023-10-09T09:46:51;100132.47;;;24.69;nan
63556;BME280;49700;48.072;7.800;2023-10-09T09:49:20;100132.47;;;24.69;nan
63556;BME280;49700;48.072;7.800;2023-10-09T09:51:47;100130.78;;;24.68;nan
63556;BME280;49700;48.072;7.800;2023-10-09T09:54:16;100130.78;;;24.68;nan
63556;BME280;49700;48.072;7.800;2023-10-09T09:56:45;100125.25;;;24.69;nan
63556;BME280;49700;48.072;7.800;2023-10-09T09:59:17;100128.59;;;24.71;nan
63556;BME280;49700;48.072;7.800;2023-10-09T10:01:49;100122.56;;;24.69;nan
63556;BME280;49700;48.072;7.800;2023-10-09T10:04:24;100129.13;;;24.67;nan
63556;BME280;49700;48.072;7.800;2023-10-09T10:06:51;100121.91;;;24.67;nan
63556;BME280;49700;48.072;7.800;2023-10-09T10:09:40;100123.41;;;24.70;nan
63556;BME280;49700;48.072;7.800;2023-10-09T10:12:09;100128.78;;;24.70;nan
63556;BME280;49700;48.072;7.800;2023-10-09T10:14:58;100135.69;;;24.64;nan
63556;BME280;49700;48.072;7.800;2023-10-09T10:17:27;100137.72;;;24.62;nan
63556;BME280;49700;48.072;7.800;2023-10-09T10:20:03;100133.19;;;24.63;nan
63556;BME280;49700;48.072;7.800;2023-10-09T10:22:44;100135.69;;;24.64;nan
63556;BME280;49700;48.072;7.800;2023-10-09T10:25:33;100140.91;;;24.66;nan
63556;BME280;49700;48.072;7.800;2023-10-09T10:28:19;100136.84;;;24.70;nan
63556;BME280;49700;48.072;7.800;2023-10-09T10:30:54;100130.09;;;24.74;nan
63556;BME280;49700;48.072;7.800;2023-10-09T10:33:20;100132.06;;;24.80;nan
63556;BME280;49700;48.072;7.800;2023-10-09T10:35:48;100130.38;;;24.87;nan
63556;BME280;49700;48.072;7.800;2023-10-09T10:38:26;100132.84;;;24.89;nan
63556;BME280;49700;48.072;7.800;2023-10-09T10:41:11;100129.34;;;24.88;nan
63556;BME280;49700;48.072;7.800;2023-10-09T10:43:37;100125.63;;;24.89;nan
63556;BME280;49700;48.072;7.800;2023-10-09T10:46:19;100129.63;;;24.93;nan
63556;BME280;49700;48.072;7.800;2023-10-09T10:49:05;100125.41;;;24.99;nan
63556;BME280;49700;48.072;7.800;2023-10-09T10:51:51;100125.19;;;25.09;nan
63556;BME280;49700;48.072;7.800;2023-10-09T10:54:26;100128.84;;;25.16;nan
63556;BME280;49700;48.072;7.800;2023-10-09T10:56:58;100126.97;;;25.16;nan
63556;BME280;49700;48.072;7.800;2023-10-09T10:59:25;100126.31;;;25.14;nan
63556;BME280;49700;48.072;7.800;2023-10-09T11:01:59;100121.47;;;25.10;nan
63556;BME280;49700;48.072;7.800;2023-10-09T11:04:28;100115.63;;;25.06;nan
63556;BME280;49700;48.072;7.800;2023-10-09T11:07:01;100119.44;;;25.12;nan
63556;BME280;49700;48.072;7.800;2023-10-09T11:12:50;100114.50;;;25.24;nan
63556;BME280;49700;48.072;7.800;2023-10-09T11:15:33;100119.06;;;25.38;nan
63556;BME280;49700;48.072;7.800;2023-10-09T11:18:15;100104.56;;;25.47;nan
63556;BME280;49700;48.072;7.800;2023-10-09T11:20:56;100100.09;;;25.54;nan
63556;BME280;49700;48.072;7.800;2023-10-09T11:23:28;100097.31;;;25.63;nan
63556;BME280;49700;48.072;7.800;2023-10-09T11:26:17;100087.97;;;25.73;nan
63556;BME280;49700;48.072;7.800;2023-10-09T11:29:25;100084.34;;;25.81;nan
63556;BME280;49700;48.072;7.800;2023-10-09T11:32:04;100081.81;;;25.88;nan
63556;BME280;49700;48.072;7.800;2023-10-09T11:34:33;100080.41;;;25.92;nan
63556;BME280;49700;48.072;7.800;2023-10-09T11:39:31;100074.75;;;26.01;nan
63556;BME280;49700;48.072;7.800;2023-10-09T11:42:04;100072.34;;;26.07;nan
63556;BME280;49700;48.072;7.800;2023-10-09T11:44:40;100075.31;;;26.12;nan
63556;BME280;49700;48.072;7.800;2023-10-09T11:47:09;100070.38;;;26.15;nan
63556;BME280;49700;48.072;7.800;2023-10-09T11:49:51;100065.44;;;26.19;nan
63556;BME280;49700;48.072;7.800;2023-10-09T11:52:26;100059.50;;;26.23;nan
63556;BME280;49700;48.072;7.800;2023-10-09T11:55:06;100059.31;;;26.25;nan
63556;BME280;49700;48.072;7.800;2023-10-09T11:57:41;100057.84;;;26.22;nan
63556;BME280;49700;48.072;7.800;2023-10-09T12:00:07;100057.19;;;26.20;nan
63556;BME280;49700;48.072;7.800;2023-10-09T12:02:49;100051.59;;;26.22;nan
63556;BME280;49700;48.072;7.800;2023-10-09T12:05:15;100057.63;;;26.24;nan
63556;BME280;49700;48.072;7.800;2023-10-09T12:07:51;100056.63;;;26.25;nan
63556;BME280;49700;48.072;7.800;2023-10-09T12:10:23;100045.66;;;26.26;nan
63556;BME280;49700;48.072;7.800;2023-10-09T12:12:54;100038.59;;;26.25;nan
63556;BME280;49700;48.072;7.800;2023-10-09T12:15:23;100036.69;;;26.19;nan
63556;BME280;49700;48.072;7.800;2023-10-09T12:17:49;100035.38;;;26.15;nan
63556;BME280;49700;48.072;7.800;2023-10-09T12:20:18;100024.53;;;26.09;nan
63556;BME280;49700;48.072;7.800;2023-10-09T12:23:02;100019.03;;;26.02;nan
63556;BME280;49700;48.072;7.800;2023-10-09T12:25:32;100019.97;;;25.94;nan
63556;BME280;49700;48.072;7.800;2023-10-09T12:27:59;100016.19;;;25.89;nan
63556;BME280;49700;48.072;7.800;2023-10-09T12:30:30;100016.91;;;25.82;nan
63556;BME280;49700;48.072;7.800;2023-10-09T12:32:57;100013.09;;;25.77;nan
63556;BME280;49700;48.072;7.800;2023-10-09T12:35:24;100005.22;;;25.75;nan
63556;BME280;49700;48.072;7.800;2023-10-09T12:37:51;99998.81;;;25.76;nan
63556;BME280;49700;48.072;7.800;2023-10-09T12:40:16;99995.75;;;25.79;nan
63556;BME280;49700;48.072;7.800;2023-10-09T12:42:50;99994.22;;;25.85;nan
63556;BME280;49700;48.072;7.800;2023-10-09T12:45:16;99987.03;;;25.92;nan
63556;BME280;49700;48.072;7.800;2023-10-09T12:47:43;99982.78;;;25.98;nan
63556;BME280;49700;48.072;7.800;2023-10-09T12:50:08;99982.41;;;26.01;nan
63556;BME280;49700;48.072;7.800;2023-10-09T12:52:39;99986.56;;;26.03;nan
63556;BME280;49700;48.072;7.800;2023-10-09T12:55:05;99979.50;;;26.02;nan
63556;BME280;49700;48.072;7.800;2023-10-09T12:57:33;99976.63;;;26.04;nan
63556;BME280;49700;48.072;7.800;2023-10-09T12:59:59;99971.91;;;26.06;nan
63556;BME280;49700;48.072;7.800;2023-10-09T13:02:24;99977.47;;;26.04;nan
63556;BME280;49700;48.072;7.800;2023-10-09T13:04:58;99978.00;;;26.00;nan
63556;BME280;49700;48.072;7.800;2023-10-09T13:07:25;99968.66;;;25.96;nan
63556;BME280;49700;48.072;7.800;2023-10-09T13:09:50;99974.44;;;25.93;nan
63556;BME280;49700;48.072;7.800;2023-10-09T13:12:35;99965.50;;;25.92;nan
63556;BME280;49700;48.072;7.800;2023-10-09T13:15:07;99971.75;;;25.93;nan
63556;BME280;49700;48.072;7.800;2023-10-09T13:17:35;99962.63;;;25.94;nan
63556;BME280;49700;48.072;7.800;2023-10-09T13:20:02;99957.25;;;25.94;nan
63556;BME280;49700;48.072;7.800;2023-10-09T13:22:38;99956.41;;;25.93;nan
63556;BME280;49700;48.072;7.800;2023-10-09T13:25:05;99953.47;;;25.88;nan
63556;BME280;49700;48.072;7.800;2023-10-09T13:27:31;99951.16;;;25.85;nan
63556;BME280;49700;48.072;7.800;2023-10-09T13:30:02;99956.00;;;25.81;nan
63556;BME280;49700;48.072;7.800;2023-10-09T13:32:32;99954.75;;;25.77;nan
63556;BME280;49700;48.072;7.800;2023-10-09T13:35:04;99950.75;;;25.73;nan
63556;BME280;49700;48.072;7.800;2023-10-09T13:37:31;99942.44;;;25.68;nan
63556;BME280;49700;48.072;7.800;2023-10-09T13:40:05;99940.75;;;25.67;nan
63556;BME280;49700;48.072;7.800;2023-10-09T13:42:35;99937.03;;;25.68;nan
63556;BME280;49700;48.072;7.800;2023-10-09T13:45:04;99933.59;;;25.74;nan
63556;BME280;49700;48.072;7.800;2023-10-09T13:47:32;99942.13;;;25.78;nan
63556;BME280;49700;48.072;7.800;2023-10-09T13:49:59;99927.44;;;25.80;nan
63556;BME280;49700;48.072;7.800;2023-10-09T13:52:25;99930.13;;;25.80;nan
63556;BME280;49700;48.072;7.800;2023-10-09T13:54:52;99919.84;;;25.84;nan
63556;BME280;49700;48.072;7.800;2023-10-09T13:57:18;99921.34;;;25.87;nan
63556;BME280;49700;48.072;7.800;2023-10-09T13:59:47;99913.53;;;25.92;nan
63556;BME280;49700;48.072;7.800;2023-10-09T14:02:16;99917.13;;;25.99;nan
63556;BME280;49700;48.072;7.800;2023-10-09T14:04:43;99915.97;;;26.08;nan